Time;durP1;ratioP1;P1;durP2;ratioP2;P2;SDS_P1;SDS_P2;PMS_P1;PMS_P2;Temp;Humidity;BMP_temperature;BMP_pressure;BME280_temperature;BME280_humidity;BME280_pressure;Samples;Min_cycle;Max_cycle;Signal;HPM_P1;HPM_P2
2024/01/04 00:01:55;;;;;;;;;;;6.50;89.80;;;;;;4992954;28;92474;-46
2024/01/04 00:04:20;;;;;;;;;;;6.50;89.80;;;;;;4993455;28;92022;-48
2024/01/04 00:06:46;;;;;;;;;;;6.60;89.90;;;;;;4995490;28;92045;-47
2024/01/04 00:09:11;;;;;;;;;;;6.50;89.80;;;;;;4992496;28;92520;-46
2024/01/04 00:11:37;;;;;;;;;;;6.50;89.70;;;;;;5001050;28;93475;-47
2024/01/04 00:14:05;;;;;;;;;;;6.60;89.80;;;;;;4993439;28;92053;-48
2024/01/04 00:16:34;;;;;;;;;;;6.50;89.70;;;;;;4997373;28;93543;-48
2024/01/04 00:18:59;;;;;;;;;;;6.50;89.70;;;;;;4996441;28;92001;-48
2024/01/04 00:21:25;;;;;;;;;;;6.50;89.70;;;;;;4987485;28;93491;-47
2024/01/04 00:23:50;;;;;;;;;;;6.60;89.80;;;;;;4999727;28;92143;-47
2024/01/04 00:26:16;;;;;;;;;;;6.50;89.70;;;;;;4995785;28;91922;-47
2024/01/04 00:28:41;;;;;;;;;;;6.50;89.80;;;;;;4997224;28;93830;-48
2024/01/04 00:31:07;;;;;;;;;;;6.50;89.70;;;;;;4992339;28;92021;-50
2024/01/04 00:33:32;;;;;;;;;;;6.50;89.80;;;;;;4996252;28;92829;-47
2024/01/04 00:35:58;;;;;;;;;;;6.50;89.70;;;;;;4988683;28;93770;-47
2024/01/04 00:38:23;;;;;;;;;;;6.50;89.80;;;;;;5000426;28;91263;-47
2024/01/04 00:40:49;;;;;;;;;;;6.50;89.80;;;;;;4994261;28;92528;-48
2024/01/04 00:43:15;;;;;;;;;;;6.50;89.80;;;;;;4992087;28;92057;-48
2024/01/04 00:45:40;;;;;;;;;;;6.60;89.90;;;;;;4995617;28;92931;-48
2024/01/04 00:48:06;;;;;;;;;;;6.50;89.80;;;;;;4995971;28;92437;-49
2024/01/04 00:50:31;;;;;;;;;;;6.50;89.80;;;;;;4993860;28;92059;-48
2024/01/04 00:52:57;;;;;;;;;;;6.50;89.80;;;;;;4995582;28;92059;-47
2024/01/04 00:55:23;;;;;;;;;;;6.50;89.80;;;;;;4991526;28;93656;-47
2024/01/04 00:57:48;;;;;;;;;;;6.50;89.70;;;;;;4996469;28;92865;-47
2024/01/04 01:00:14;;;;;;;;;;;6.60;89.80;;;;;;4997124;28;92006;-48
2024/01/04 01:02:40;;;;;;;;;;;6.50;89.70;;;;;;4992706;28;91322;-47
2024/01/04 01:05:06;;;;;;;;;;;6.60;89.70;;;;;;4995801;28;92048;-48
2024/01/04 01:07:31;;;;;;;;;;;6.60;89.70;;;;;;4991246;28;92508;-48
2024/01/04 01:09:57;;;;;;;;;;;6.60;89.70;;;;;;4995193;28;93018;-47
2024/01/04 01:12:22;;;;;;;;;;;6.60;89.70;;;;;;4994890;28;93087;-47
2024/01/04 01:14:48;;;;;;;;;;;6.60;89.60;;;;;;4995143;28;92430;-47
2024/01/04 01:17:13;;;;;;;;;;;6.60;90.10;;;;;;4991729;28;91787;-49
2024/01/04 01:19:39;;;;;;;;;;;6.60;89.70;;;;;;4997877;28;92175;-48
2024/01/04 01:22:05;;;;;;;;;;;6.60;89.70;;;;;;4998660;28;92039;-47
2024/01/04 01:24:31;;;;;;;;;;;6.60;89.60;;;;;;4995508;28;92021;-47
2024/01/04 01:26:56;;;;;;;;;;;6.60;89.70;;;;;;4997642;28;91775;-46
2024/01/04 01:29:22;;;;;;;;;;;6.60;89.60;;;;;;4991160;28;92015;-47
2024/01/04 01:31:47;;;;;;;;;;;6.50;89.60;;;;;;4990491;28;92041;-47
2024/01/04 01:34:13;;;;;;;;;;;6.60;89.70;;;;;;4993675;28;94501;-47
2024/01/04 01:36:41;;;;;;;;;;;6.60;89.70;;;;;;4991728;28;92140;-48
2024/01/04 01:39:08;;;;;;;;;;;6.60;89.80;;;;;;4992529;28;92003;-47
2024/01/04 01:41:34;;;;;;;;;;;6.60;89.90;;;;;;5000463;28;93827;-48
2024/01/04 01:43:59;;;;;;;;;;;6.60;89.90;;;;;;4995418;28;93073;-47
2024/01/04 01:46:25;;;;;;;;;;;6.60;90.00;;;;;;4990938;28;92545;-48
2024/01/04 01:48:50;;;;;;;;;;;6.50;89.90;;;;;;4995239;28;92096;-47
2024/01/04 01:51:16;;;;;;;;;;;6.50;90.00;;;;;;4992909;28;91318;-48
2024/01/04 01:53:42;;;;;;;;;;;6.60;90.10;;;;;;4993642;28;91959;-47
2024/01/04 01:56:07;;;;;;;;;;;6.60;90.10;;;;;;4991389;28;91910;-48
2024/01/04 01:58:34;;;;;;;;;;;6.50;90.00;;;;;;4992953;28;93127;-48
2024/01/04 02:00:59;;;;;;;;;;;6.60;90.00;;;;;;4991169;28;92573;-47
2024/01/04 02:03:25;;;;;;;;;;;6.60;90.10;;;;;;4995856;28;91955;-48
2024/01/04 02:05:50;;;;;;;;;;;6.50;90.10;;;;;;4991661;28;92507;-48
2024/01/04 02:08:16;;;;;;;;;;;6.60;90.20;;;;;;4994131;28;92710;-48
2024/01/04 02:10:42;;;;;;;;;;;6.60;90.20;;;;;;4990876;28;92952;-50
2024/01/04 02:13:09;;;;;;;;;;;6.60;90.20;;;;;;4994707;28;92572;-47
2024/01/04 02:15:34;;;;;;;;;;;6.60;90.20;;;;;;4996001;28;91427;-47
2024/01/04 02:18:00;;;;;;;;;;;6.60;90.30;;;;;;4993238;28;91816;-47
2024/01/04 02:20:25;;;;;;;;;;;6.60;90.30;;;;;;4991471;28;93471;-47
2024/01/04 02:22:52;;;;;;;;;;;6.60;90.40;;;;;;4995650;28;92999;-47
2024/01/04 02:25:18;;;;;;;;;;;6.60;90.40;;;;;;5001422;28;92909;-47
2024/01/04 02:27:44;;;;;;;;;;;6.60;90.30;;;;;;4989563;28;91974;-48
2024/01/04 02:30:11;;;;;;;;;;;6.60;90.20;;;;;;4994702;28;92106;-48
2024/01/04 02:32:37;;;;;;;;;;;6.60;90.20;;;;;;4994258;28;91994;-48
2024/01/04 02:35:03;;;;;;;;;;;6.60;90.10;;;;;;4989265;28;92208;-47
2024/01/04 02:37:29;;;;;;;;;;;6.50;90.10;;;;;;4990618;28;92623;-48
2024/01/04 02:39:54;;;;;;;;;;;6.60;90.10;;;;;;4993647;28;91778;-47
2024/01/04 02:42:20;;;;;;;;;;;6.60;90.10;;;;;;4995160;28;92014;-47
2024/01/04 02:44:45;;;;;;;;;;;6.60;90.00;;;;;;4993098;28;92141;-48
2024/01/04 02:47:11;;;;;;;;;;;6.60;90.10;;;;;;4995294;28;93482;-48
2024/01/04 02:49:38;;;;;;;;;;;6.60;90.00;;;;;;5000779;28;93853;-48
2024/01/04 02:52:03;;;;;;;;;;;6.50;90.00;;;;;;4993842;28;92535;-48
2024/01/04 02:54:29;;;;;;;;;;;6.60;90.00;;;;;;4993347;28;92058;-47
2024/01/04 02:56:54;;;;;;;;;;;6.60;90.00;;;;;;4993169;28;91909;-49
2024/01/04 02:59:20;;;;;;;;;;;6.60;90.00;;;;;;4993615;28;92730;-48
2024/01/04 03:01:48;;;;;;;;;;;6.60;90.00;;;;;;4995502;28;92036;-47
2024/01/04 03:04:14;;;;;;;;;;;6.60;90.00;;;;;;4994223;28;93137;-46
2024/01/04 03:06:40;;;;;;;;;;;6.60;90.00;;;;;;4999000;28;92639;-47
2024/01/04 03:09:06;;;;;;;;;;;6.50;90.00;;;;;;5000625;28;91897;-48
2024/01/04 03:11:32;;;;;;;;;;;6.60;90.00;;;;;;4995576;28;94666;-46
2024/01/04 03:13:57;;;;;;;;;;;6.60;90.00;;;;;;4996561;28;92027;-47
2024/01/04 03:16:23;;;;;;;;;;;6.60;90.00;;;;;;4994914;28;91928;-47
2024/01/04 03:18:48;;;;;;;;;;;6.60;90.00;;;;;;4997031;28;92477;-47
2024/01/04 03:21:14;;;;;;;;;;;6.50;90.00;;;;;;4991671;28;92037;-49
2024/01/04 03:23:40;;;;;;;;;;;6.50;90.00;;;;;;4995974;28;92119;-46
2024/01/04 03:26:05;;;;;;;;;;;6.50;90.00;;;;;;4998360;28;92460;-47
2024/01/04 03:28:31;;;;;;;;;;;6.60;90.00;;;;;;4999971;28;91904;-47
2024/01/04 03:30:57;;;;;;;;;;;6.60;90.00;;;;;;4992387;28;93586;-46
2024/01/04 03:33:22;;;;;;;;;;;6.60;90.00;;;;;;4997055;28;92056;-47
2024/01/04 03:35:48;;;;;;;;;;;6.60;90.10;;;;;;5000432;28;92880;-48
2024/01/04 03:38:13;;;;;;;;;;;6.60;90.00;;;;;;4993879;28;92560;-49
2024/01/04 03:40:39;;;;;;;;;;;6.50;90.00;;;;;;4996015;28;92030;-48
2024/01/04 03:43:04;;;;;;;;;;;6.50;90.00;;;;;;5002180;28;91987;-47
2024/01/04 03:45:33;;;;;;;;;;;6.50;90.00;;;;;;4994380;28;92409;-47
2024/01/04 03:47:59;;;;;;;;;;;6.50;90.00;;;;;;4996204;28;92033;-49
2024/01/04 03:50:25;;;;;;;;;;;6.50;90.00;;;;;;4998457;28;91979;-47
2024/01/04 03:52:50;;;;;;;;;;;6.60;90.10;;;;;;4997172;28;91338;-47
2024/01/04 03:55:16;;;;;;;;;;;6.60;90.10;;;;;;4996694;28;92179;-47
2024/01/04 03:57:45;;;;;;;;;;;6.50;90.00;;;;;;4995141;28;93567;-48
2024/01/04 04:00:11;;;;;;;;;;;6.50;90.00;;;;;;4994200;28;92942;-48
2024/01/04 04:02:37;;;;;;;;;;;6.50;90.00;;;;;;4997083;28;93851;-47
2024/01/04 04:05:02;;;;;;;;;;;6.60;90.00;;;;;;4994165;28;92434;-48
2024/01/04 04:07:28;;;;;;;;;;;6.50;90.00;;;;;;4996132;28;91988;-48
2024/01/04 04:09:54;;;;;;;;;;;6.60;90.00;;;;;;5001230;28;93127;-47
2024/01/04 04:12:20;;;;;;;;;;;6.60;90.00;;;;;;4998965;28;93574;-47
2024/01/04 04:14:45;;;;;;;;;;;6.50;90.00;;;;;;4994623;28;92595;-47
2024/01/04 04:17:11;;;;;;;;;;;6.50;90.00;;;;;;4993673;28;91842;-47
2024/01/04 04:19:36;;;;;;;;;;;6.50;90.00;;;;;;4995183;28;92032;-47
2024/01/04 04:22:02;;;;;;;;;;;6.50;89.90;;;;;;4993421;28;92841;-47
2024/01/04 04:24:28;;;;;;;;;;;6.50;90.00;;;;;;4990329;28;93573;-48
2024/01/04 04:26:53;;;;;;;;;;;6.50;90.00;;;;;;4996497;28;91997;-48
2024/01/04 04:29:19;;;;;;;;;;;6.50;89.90;;;;;;4999403;28;92033;-48
2024/01/04 04:31:47;;;;;;;;;;;6.60;90.00;;;;;;4998673;28;92424;-48
2024/01/04 04:34:13;;;;;;;;;;;6.50;90.00;;;;;;4999408;28;92054;-48
2024/01/04 04:36:40;;;;;;;;;;;6.50;90.00;;;;;;4992359;28;92586;-48
2024/01/04 04:39:07;;;;;;;;;;;6.60;90.00;;;;;;4998386;28;92131;-47
2024/01/04 04:41:32;;;;;;;;;;;6.50;90.00;;;;;;4992580;28;91841;-47
2024/01/04 04:43:58;;;;;;;;;;;6.50;90.00;;;;;;4992620;28;92657;-47
2024/01/04 04:46:24;;;;;;;;;;;6.50;90.00;;;;;;4996473;28;92295;-47
2024/01/04 04:48:54;;;;;;;;;;;6.50;90.00;;;;;;4996089;28;92934;-47
2024/01/04 04:51:21;;;;;;;;;;;6.50;90.00;;;;;;4995750;28;92539;-48
2024/01/04 04:53:47;;;;;;;;;;;6.50;90.00;;;;;;4994048;28;92052;-47
2024/01/04 04:56:13;;;;;;;;;;;6.50;90.20;;;;;;4996151;28;91936;-48
2024/01/04 04:58:38;;;;;;;;;;;6.50;90.00;;;;;;4992525;28;92323;-48
2024/01/04 05:01:04;;;;;;;;;;;6.60;90.00;;;;;;4994621;28;92022;-48
2024/01/04 05:03:30;;;;;;;;;;;6.50;90.00;;;;;;4995908;28;92456;-49
2024/01/04 05:05:55;;;;;;;;;;;6.50;90.00;;;;;;4995938;28;91318;-49
2024/01/04 05:08:22;;;;;;;;;;;6.50;90.00;;;;;;4995381;28;91996;-46
2024/01/04 05:10:48;;;;;;;;;;;6.50;90.00;;;;;;4998903;28;92541;-48
2024/01/04 05:13:13;;;;;;;;;;;6.50;90.00;;;;;;4991842;28;93308;-47
2024/01/04 05:15:39;;;;;;;;;;;6.50;90.00;;;;;;4997282;28;92657;-46
2024/01/04 05:18:04;;;;;;;;;;;6.60;90.10;;;;;;4997808;28;92057;-48
2024/01/04 05:20:30;;;;;;;;;;;6.50;90.00;;;;;;4995219;28;91903;-47
2024/01/04 05:22:56;;;;;;;;;;;6.50;90.00;;;;;;4992504;28;92632;-47
2024/01/04 05:25:22;;;;;;;;;;;6.50;90.00;;;;;;4995113;28;92047;-47
2024/01/04 05:27:48;;;;;;;;;;;6.50;90.00;;;;;;4994901;28;92334;-48
2024/01/04 05:30:13;;;;;;;;;;;6.50;90.00;;;;;;4993034;28;91783;-48
2024/01/04 05:32:39;;;;;;;;;;;6.50;90.00;;;;;;4999337;28;91982;-47
2024/01/04 05:35:05;;;;;;;;;;;6.50;89.90;;;;;;4991487;28;91978;-48
2024/01/04 05:37:30;;;;;;;;;;;6.50;89.90;;;;;;4991125;28;94462;-47
2024/01/04 05:39:56;;;;;;;;;;;6.50;89.90;;;;;;4993781;28;92718;-48
2024/01/04 05:42:21;;;;;;;;;;;6.50;89.90;;;;;;4990817;28;93497;-47
2024/01/04 05:44:47;;;;;;;;;;;6.50;89.90;;;;;;4993629;28;92136;-49
2024/01/04 05:47:12;;;;;;;;;;;6.50;90.00;;;;;;4990303;28;92023;-46
2024/01/04 05:49:38;;;;;;;;;;;6.50;89.90;;;;;;4995155;28;92632;-47
2024/01/04 05:52:04;;;;;;;;;;;6.50;89.90;;;;;;4990908;28;92067;-47
2024/01/04 05:54:29;;;;;;;;;;;6.50;89.80;;;;;;4997445;28;91849;-47
2024/01/04 05:56:55;;;;;;;;;;;6.50;89.80;;;;;;4990316;28;93455;-47
2024/01/04 05:59:24;;;;;;;;;;;6.50;89.80;;;;;;4995019;28;92573;-47
2024/01/04 06:01:50;;;;;;;;;;;6.50;89.80;;;;;;4989036;28;94610;-48
2024/01/04 06:04:16;;;;;;;;;;;6.50;89.80;;;;;;4994489;28;92172;-48
2024/01/04 06:06:41;;;;;;;;;;;6.50;89.80;;;;;;4994713;28;93123;-47
2024/01/04 06:09:07;;;;;;;;;;;6.50;89.70;;;;;;4986821;28;92929;-47
2024/01/04 06:11:32;;;;;;;;;;;6.50;89.80;;;;;;4994506;28;92092;-48
2024/01/04 06:13:58;;;;;;;;;;;6.50;89.80;;;;;;4999049;28;92025;-48
2024/01/04 06:16:23;;;;;;;;;;;6.50;89.70;;;;;;4991944;28;92071;-47
2024/01/04 06:18:49;;;;;;;;;;;6.50;89.70;;;;;;4991042;28;91792;-47
2024/01/04 06:21:16;;;;;;;;;;;6.50;89.70;;;;;;4996831;28;92051;-47
2024/01/04 06:23:41;;;;;;;;;;;6.50;89.70;;;;;;4993840;28;92086;-48
2024/01/04 06:26:07;;;;;;;;;;;6.50;89.70;;;;;;4990237;28;93532;-47
2024/01/04 06:28:32;;;;;;;;;;;6.50;89.70;;;;;;4993472;28;92486;-47
2024/01/04 06:30:58;;;;;;;;;;;6.50;89.60;;;;;;4994962;28;92147;-49
2024/01/04 06:33:23;;;;;;;;;;;6.50;89.60;;;;;;4995544;28;93003;-47
2024/01/04 06:35:49;;;;;;;;;;;6.50;89.60;;;;;;4997708;28;92656;-47
2024/01/04 06:38:14;;;;;;;;;;;6.50;89.70;;;;;;4996964;28;91996;-47
2024/01/04 06:40:40;;;;;;;;;;;6.60;89.70;;;;;;4998063;28;92033;-47
2024/01/04 06:43:09;;;;;;;;;;;6.50;89.70;;;;;;5000535;28;92687;-47
2024/01/04 06:45:36;;;;;;;;;;;6.50;89.60;;;;;;4999810;28;92572;-48
2024/01/04 06:48:01;;;;;;;;;;;6.50;89.60;;;;;;4993047;28;93702;-48
2024/01/04 06:50:27;;;;;;;;;;;6.50;89.70;;;;;;4996953;28;92991;-47
2024/01/04 06:52:52;;;;;;;;;;;6.60;89.70;;;;;;4996068;28;92794;-48
2024/01/04 06:55:21;;;;;;;;;;;6.50;90.00;;;;;;4993887;28;92497;-47
2024/01/04 06:57:46;;;;;;;;;;;6.50;89.80;;;;;;4994486;28;92069;-47
2024/01/04 07:00:12;;;;;;;;;;;6.50;89.90;;;;;;4999141;28;92107;-47
2024/01/04 07:02:38;;;;;;;;;;;6.50;90.00;;;;;;4998755;28;92433;-49
2024/01/04 07:05:04;;;;;;;;;;;6.50;90.00;;;;;;4996442;28;92080;-48
2024/01/04 07:07:30;;;;;;;;;;;6.60;90.00;;;;;;4995941;28;93115;-48
2024/01/04 07:09:56;;;;;;;;;;;6.60;90.00;;;;;;4998995;28;92112;-48
2024/01/04 07:12:21;;;;;;;;;;;6.60;90.00;;;;;;4997286;28;92912;-48
2024/01/04 07:14:47;;;;;;;;;;;6.60;89.80;;;;;;4998219;28;93721;-48
2024/01/04 07:17:14;;;;;;;;;;;6.60;90.00;;;;;;4993882;28;92758;-47
2024/01/04 07:19:43;;;;;;;;;;;6.60;90.00;;;;;;4990002;28;92943;-47
2024/01/04 07:22:10;;;;;;;;;;;6.60;90.00;;;;;;4994528;28;92449;-47
2024/01/04 07:24:36;;;;;;;;;;;6.60;90.30;;;;;;5003443;28;92046;-49
2024/01/04 07:27:01;;;;;;;;;;;6.60;90.20;;;;;;4995319;28;92400;-47
2024/01/04 07:29:27;;;;;;;;;;;6.60;90.20;;;;;;4995013;28;92086;-48
2024/01/04 07:31:54;;;;;;;;;;;6.60;90.20;;;;;;4996138;28;92066;-47
2024/01/04 07:34:21;;;;;;;;;;;6.60;90.20;;;;;;4996410;28;93635;-47
2024/01/04 07:36:46;;;;;;;;;;;6.60;90.20;;;;;;4998369;28;92000;-48
2024/01/04 07:39:12;;;;;;;;;;;6.60;90.20;;;;;;4994851;28;94906;-47
2024/01/04 07:41:37;;;;;;;;;;;6.60;90.30;;;;;;4993147;28;93823;-49
2024/01/04 07:44:03;;;;;;;;;;;6.60;90.30;;;;;;4992253;28;92119;-49
2024/01/04 07:46:30;;;;;;;;;;;6.60;90.40;;;;;;4998378;28;92070;-48
2024/01/04 07:48:56;;;;;;;;;;;6.60;90.40;;;;;;4999907;28;92992;-49
2024/01/04 07:51:22;;;;;;;;;;;6.60;90.40;;;;;;4997563;28;92707;-48
2024/01/04 07:53:47;;;;;;;;;;;6.60;90.40;;;;;;4995017;28;92586;-51
2024/01/04 07:56:13;;;;;;;;;;;6.70;90.50;;;;;;5001088;28;91855;-49
2024/01/04 07:58:38;;;;;;;;;;;6.60;90.40;;;;;;4996457;28;92078;-48
2024/01/04 08:01:04;;;;;;;;;;;6.70;90.50;;;;;;4992800;28;92623;-48
2024/01/04 08:03:30;;;;;;;;;;;6.60;90.50;;;;;;4996552;28;92982;-47
2024/01/04 08:05:56;;;;;;;;;;;6.70;90.50;;;;;;4995801;28;91815;-47
2024/01/04 08:08:21;;;;;;;;;;;6.60;90.50;;;;;;4991432;28;93552;-49
2024/01/04 08:10:47;;;;;;;;;;;6.60;90.80;;;;;;4995327;28;92231;-48
2024/01/04 08:13:16;;;;;;;;;;;6.70;90.60;;;;;;4997431;28;92820;-48
2024/01/04 08:15:42;;;;;;;;;;;6.70;90.50;;;;;;4991506;28;92833;-47
2024/01/04 08:18:07;;;;;;;;;;;6.70;90.60;;;;;;4995537;28;92054;-47
2024/01/04 08:20:33;;;;;;;;;;;6.70;90.60;;;;;;4995342;28;92777;-48
2024/01/04 08:22:59;;;;;;;;;;;6.70;90.60;;;;;;4998065;28;92148;-48
2024/01/04 08:25:24;;;;;;;;;;;6.70;90.60;;;;;;4991600;28;92886;-47
2024/01/04 08:27:50;;;;;;;;;;;6.70;90.60;;;;;;4986250;28;93805;-47
2024/01/04 08:30:16;;;;;;;;;;;6.70;90.60;;;;;;4999584;28;92109;-49
2024/01/04 08:32:41;;;;;;;;;;;6.70;90.60;;;;;;4992205;28;92517;-47
2024/01/04 08:35:07;;;;;;;;;;;6.70;90.60;;;;;;4994539;28;92007;-47
2024/01/04 08:37:33;;;;;;;;;;;6.70;90.60;;;;;;4997429;28;92117;-50
2024/01/04 08:39:58;;;;;;;;;;;6.70;90.60;;;;;;4994418;28;93503;-47
2024/01/04 08:42:24;;;;;;;;;;;6.70;90.70;;;;;;4998450;28;92682;-48
2024/01/04 08:44:49;;;;;;;;;;;6.70;90.70;;;;;;4991942;28;91712;-47
2024/01/04 08:47:15;;;;;;;;;;;6.70;90.70;;;;;;4990222;28;92566;-50
2024/01/04 08:49:40;;;;;;;;;;;6.70;90.60;;;;;;4996129;28;92183;-49
2024/01/04 08:52:06;;;;;;;;;;;6.70;90.70;;;;;;4994095;28;92912;-48
2024/01/04 08:54:32;;;;;;;;;;;6.70;90.60;;;;;;4993378;28;93152;-47
2024/01/04 08:56:57;;;;;;;;;;;6.70;90.70;;;;;;4988845;28;93447;-48
2024/01/04 08:59:23;;;;;;;;;;;6.70;90.70;;;;;;4989249;28;92577;-47
2024/01/04 09:01:48;;;;;;;;;;;6.70;90.70;;;;;;4996582;28;92169;-47
2024/01/04 09:04:14;;;;;;;;;;;6.70;90.70;;;;;;4995629;28;92027;-48
2024/01/04 09:06:40;;;;;;;;;;;6.80;90.80;;;;;;4988178;28;92537;-47
2024/01/04 09:09:07;;;;;;;;;;;6.80;90.70;;;;;;4998699;28;91275;-47
2024/01/04 09:11:38;;;;;;;;;;;6.80;90.80;;;;;;4988205;28;92819;-48
2024/01/04 09:14:07;;;;;;;;;;;6.70;90.80;;;;;;4990222;28;93599;-47
2024/01/04 09:16:34;;;;;;;;;;;6.70;90.70;;;;;;4991429;28;92869;-47
2024/01/04 09:19:00;;;;;;;;;;;6.80;90.80;;;;;;4992865;28;93634;-48
2024/01/04 09:21:26;;;;;;;;;;;6.80;90.80;;;;;;4990142;28;92167;-47
2024/01/04 09:23:52;;;;;;;;;;;6.80;90.80;;;;;;4996061;28;92063;-49
2024/01/04 09:26:18;;;;;;;;;;;6.80;90.80;;;;;;4995172;28;93491;-48
2024/01/04 09:28:44;;;;;;;;;;;6.80;90.80;;;;;;4995535;28;92029;-47
2024/01/04 09:31:09;;;;;;;;;;;6.80;90.90;;;;;;4993406;28;93087;-49
2024/01/04 09:33:35;;;;;;;;;;;6.80;90.80;;;;;;4998823;28;92064;-48
2024/01/04 09:36:02;;;;;;;;;;;6.80;90.80;;;;;;4998499;28;92064;-49
2024/01/04 09:38:27;;;;;;;;;;;6.80;90.80;;;;;;4993050;28;93519;-47
2024/01/04 09:40:57;;;;;;;;;;;6.90;90.80;;;;;;4995903;28;93215;-48
2024/01/04 09:43:23;;;;;;;;;;;6.90;90.80;;;;;;4995574;28;92649;-49
2024/01/04 09:45:49;;;;;;;;;;;6.90;90.70;;;;;;4995055;28;92457;-49
2024/01/04 09:48:17;;;;;;;;;;;6.90;90.70;;;;;;4989063;28;92106;-47
2024/01/04 09:50:43;;;;;;;;;;;6.90;90.70;;;;;;4992804;28;92017;-47
2024/01/04 09:53:09;;;;;;;;;;;6.90;90.70;;;;;;4990444;28;92659;-47
2024/01/04 09:55:36;;;;;;;;;;;6.90;90.80;;;;;;4996700;28;92116;-50
2024/01/04 09:58:03;;;;;;;;;;;6.90;90.80;;;;;;4991595;28;93297;-48
2024/01/04 10:00:29;;;;;;;;;;;6.90;90.80;;;;;;4996031;28;92077;-47
2024/01/04 10:02:56;;;;;;;;;;;6.90;90.90;;;;;;4992295;28;92962;-46
2024/01/04 10:05:22;;;;;;;;;;;6.90;90.90;;;;;;4994524;28;93996;-47
2024/01/04 10:08:12;;;;;;;;;;;6.90;90.90;;;;;;4990780;28;92139;-47
2024/01/04 10:10:40;;;;;;;;;;;6.90;91.00;;;;;;4989915;28;92181;-49
2024/01/04 10:13:06;;;;;;;;;;;6.90;91.00;;;;;;4990081;28;93441;-49
2024/01/04 10:15:32;;;;;;;;;;;6.90;91.00;;;;;;4992305;28;91978;-47
2024/01/04 10:17:58;;;;;;;;;;;7.00;91.10;;;;;;4998200;28;92303;-47
2024/01/04 10:20:24;;;;;;;;;;;6.90;91.00;;;;;;4995118;28;91959;-47
2024/01/04 10:22:49;;;;;;;;;;;6.90;90.90;;;;;;4994350;28;91992;-49
2024/01/04 10:25:18;;;;;;;;;;;6.90;91.10;;;;;;4994985;28;92681;-48
2024/01/04 10:27:53;;;;;;;;;;;7.00;91.10;;;;;;4997198;28;92073;-49
2024/01/04 10:30:20;;;;;;;;;;;7.00;91.00;;;;;;4996708;28;93398;-48
2024/01/04 10:32:50;;;;;;;;;;;7.00;90.90;;;;;;4997819;28;92541;-48
2024/01/04 10:35:15;;;;;;;;;;;7.00;91.00;;;;;;4994297;28;92037;-47
2024/01/04 10:37:41;;;;;;;;;;;7.00;91.00;;;;;;4993396;28;92106;-47
2024/01/04 10:40:09;;;;;;;;;;;7.00;91.10;;;;;;4994358;28;93480;-48
2024/01/04 10:42:35;;;;;;;;;;;7.00;91.10;;;;;;4990365;28;92662;-48
2024/01/04 10:45:01;;;;;;;;;;;7.00;91.10;;;;;;4989151;28;93023;-47
2024/01/04 10:47:27;;;;;;;;;;;7.00;91.10;;;;;;4994900;28;91383;-47
2024/01/04 10:49:57;;;;;;;;;;;7.00;91.10;;;;;;4994641;28;91956;-47
2024/01/04 10:52:24;;;;;;;;;;;7.00;91.10;;;;;;4994112;28;92326;-49
2024/01/04 10:54:51;;;;;;;;;;;7.10;91.10;;;;;;4989670;28;93125;-48
2024/01/04 10:57:18;;;;;;;;;;;7.10;91.00;;;;;;4993540;28;92740;-47
2024/01/04 10:59:44;;;;;;;;;;;7.10;91.10;;;;;;4989687;28;93612;-49
2024/01/04 11:02:11;;;;;;;;;;;7.10;91.10;;;;;;4997183;28;92058;-48
2024/01/04 11:04:38;;;;;;;;;;;7.10;91.00;;;;;;4991279;28;92549;-49
2024/01/04 11:07:03;;;;;;;;;;;7.00;91.10;;;;;;4989973;28;92027;-47
2024/01/04 11:09:30;;;;;;;;;;;7.10;91.10;;;;;;4994628;28;91909;-48
2024/01/04 11:11:58;;;;;;;;;;;7.10;91.20;;;;;;4991138;28;91197;-50
2024/01/04 11:14:24;;;;;;;;;;;7.10;91.40;;;;;;4991345;28;92970;-48
2024/01/04 11:16:50;;;;;;;;;;;7.10;91.20;;;;;;4993952;28;91891;-47
2024/01/04 11:19:15;;;;;;;;;;;7.10;91.20;;;;;;4995159;28;93504;-48
2024/01/04 11:21:41;;;;;;;;;;;7.10;91.20;;;;;;4994141;28;92076;-50
2024/01/04 11:24:11;;;;;;;;;;;7.10;91.20;;;;;;4996845;28;93008;-47
2024/01/04 11:26:37;;;;;;;;;;;7.10;91.20;;;;;;4993623;28;92142;-47
2024/01/04 11:29:08;;;;;;;;;;;7.20;91.20;;;;;;4998886;28;92319;-47
2024/01/04 11:31:39;;;;;;;;;;;7.20;91.20;;;;;;4992609;28;93702;-47
2024/01/04 11:34:04;;;;;;;;;;;7.20;91.20;;;;;;4998325;28;93894;-48
2024/01/04 11:36:30;;;;;;;;;;;7.20;91.20;;;;;;4994819;28;92839;-48
2024/01/04 11:38:57;;;;;;;;;;;7.20;91.20;;;;;;4994445;28;93056;-50
2024/01/04 11:41:32;;;;;;;;;;;7.20;91.30;;;;;;4994380;28;92170;-47
2024/01/04 11:43:58;;;;;;;;;;;7.20;91.30;;;;;;4997805;28;93041;-47
2024/01/04 11:46:26;;;;;;;;;;;7.20;91.30;;;;;;4999671;28;92073;-47
2024/01/04 11:48:52;;;;;;;;;;;7.20;91.50;;;;;;4994408;28;92951;-47
2024/01/04 11:51:28;;;;;;;;;;;7.20;91.40;;;;;;4995005;28;93324;-50
2024/01/04 11:53:54;;;;;;;;;;;7.20;91.30;;;;;;4992910;28;92081;-49
2024/01/04 11:56:19;;;;;;;;;;;7.20;91.40;;;;;;5001591;28;93209;-46
2024/01/04 11:58:45;;;;;;;;;;;7.20;91.40;;;;;;4989546;28;93426;-49
2024/01/04 12:01:10;;;;;;;;;;;7.20;91.30;;;;;;4997582;28;91495;-48
2024/01/04 12:03:36;;;;;;;;;;;7.20;91.30;;;;;;4997153;28;91894;-48
2024/01/04 12:06:02;;;;;;;;;;;7.30;91.30;;;;;;4999989;28;92466;-48
2024/01/04 12:08:28;;;;;;;;;;;7.30;91.20;;;;;;4989692;28;92972;-47
2024/01/04 12:10:55;;;;;;;;;;;7.30;91.20;;;;;;4995368;28;93536;-49
2024/01/04 12:13:20;;;;;;;;;;;7.30;91.30;;;;;;4994245;28;91991;-47
2024/01/04 12:15:46;;;;;;;;;;;7.20;91.20;;;;;;4995005;28;92327;-47
2024/01/04 12:18:12;;;;;;;;;;;7.20;91.30;;;;;;4994978;28;92661;-48
2024/01/04 12:20:38;;;;;;;;;;;7.30;91.30;;;;;;4990656;28;92809;-48
2024/01/04 12:23:06;;;;;;;;;;;7.30;91.30;;;;;;4996829;28;92781;-48
2024/01/04 12:25:35;;;;;;;;;;;7.20;91.30;;;;;;4995782;28;93030;-47
2024/01/04 12:28:01;;;;;;;;;;;7.30;91.30;;;;;;4996882;28;92050;-47
2024/01/04 12:30:28;;;;;;;;;;;7.30;91.40;;;;;;4992190;28;95385;-48
2024/01/04 12:32:55;;;;;;;;;;;7.30;91.30;;;;;;4995959;28;93057;-48
2024/01/04 12:35:21;;;;;;;;;;;7.30;91.30;;;;;;4996435;28;93277;-47
2024/01/04 12:37:56;;;;;;;;;;;7.30;91.40;;;;;;4993431;28;92387;-48
2024/01/04 12:40:22;;;;;;;;;;;7.30;91.40;;;;;;4991951;28;92051;-47
2024/01/04 12:42:48;;;;;;;;;;;7.30;91.30;;;;;;4995238;28;92803;-47
2024/01/04 12:45:13;;;;;;;;;;;7.30;91.30;;;;;;4990181;28;93510;-48
2024/01/04 12:47:39;;;;;;;;;;;7.30;91.30;;;;;;4995061;28;93217;-48
2024/01/04 12:50:05;;;;;;;;;;;7.40;91.40;;;;;;5009740;28;94293;-48
2024/01/04 12:52:30;;;;;;;;;;;7.40;91.40;;;;;;4997245;28;92035;-50
2024/01/04 12:54:56;;;;;;;;;;;7.30;91.40;;;;;;4992862;28;92027;-48
2024/01/04 12:57:22;;;;;;;;;;;7.40;91.40;;;;;;4990386;28;94495;-48
2024/01/04 12:59:47;;;;;;;;;;;7.40;91.40;;;;;;4992443;28;91988;-48
2024/01/04 13:02:13;;;;;;;;;;;7.40;91.40;;;;;;4993779;28;93059;-48
2024/01/04 13:04:39;;;;;;;;;;;7.40;91.40;;;;;;4990001;28;93494;-49
2024/01/04 13:07:04;;;;;;;;;;;7.40;91.40;;;;;;4991552;28;91994;-48
2024/01/04 13:09:31;;;;;;;;;;;7.40;91.40;;;;;;4992205;28;92258;-49
2024/01/04 13:11:57;;;;;;;;;;;7.40;91.40;;;;;;4999217;28;93773;-47
2024/01/04 13:14:22;;;;;;;;;;;7.40;91.40;;;;;;4993985;28;91742;-49
2024/01/04 13:16:50;;;;;;;;;;;7.50;91.40;;;;;;4992201;28;92471;-48
2024/01/04 13:19:16;;;;;;;;;;;7.50;91.30;;;;;;4992863;28;92316;-47
2024/01/04 13:21:42;;;;;;;;;;;7.50;91.40;;;;;;4995752;28;93057;-50
2024/01/04 13:24:07;;;;;;;;;;;7.50;91.40;;;;;;4993560;28;93595;-47
2024/01/04 13:26:33;;;;;;;;;;;7.50;91.30;;;;;;4994489;28;92125;-48
2024/01/04 13:29:00;;;;;;;;;;;7.50;91.40;;;;;;4992582;28;92861;-47
2024/01/04 13:31:25;;;;;;;;;;;7.50;91.40;;;;;;4993101;28;94201;-47
2024/01/04 13:33:51;;;;;;;;;;;7.50;91.40;;;;;;4992877;28;92043;-47
2024/01/04 13:36:17;;;;;;;;;;;7.60;91.40;;;;;;4988640;28;93345;-48
2024/01/04 13:38:43;;;;;;;;;;;7.50;91.40;;;;;;4992758;28;91298;-48
2024/01/04 13:41:09;;;;;;;;;;;7.50;91.40;;;;;;4994231;28;92041;-47
2024/01/04 13:43:34;;;;;;;;;;;7.60;91.50;;;;;;4991713;28;93548;-49
2024/01/04 13:46:00;;;;;;;;;;;7.50;91.40;;;;;;4998614;28;93080;-47
2024/01/04 13:48:26;;;;;;;;;;;7.60;91.40;;;;;;4995131;28;93155;-47
2024/01/04 13:50:55;;;;;;;;;;;7.60;91.40;;;;;;4992083;28;93574;-48
2024/01/04 13:53:21;;;;;;;;;;;7.60;91.50;;;;;;4998789;28;93703;-47
2024/01/04 13:55:47;;;;;;;;;;;7.60;91.40;;;;;;4993796;28;92947;-47
2024/01/04 13:58:12;;;;;;;;;;;7.60;91.50;;;;;;4993740;28;92085;-46
2024/01/04 14:00:39;;;;;;;;;;;7.60;91.50;;;;;;4991821;28;92054;-48
2024/01/04 14:03:04;;;;;;;;;;;7.60;91.50;;;;;;4994063;28;91768;-47
2024/01/04 14:05:30;;;;;;;;;;;7.60;91.60;;;;;;4988638;28;93794;-48
2024/01/04 14:07:55;;;;;;;;;;;7.60;91.50;;;;;;4993165;28;91841;-48
2024/01/04 14:10:21;;;;;;;;;;;7.60;91.70;;;;;;4990344;28;93237;-48
2024/01/04 14:12:48;;;;;;;;;;;7.60;91.80;;;;;;4993566;28;92578;-48
2024/01/04 14:15:13;;;;;;;;;;;7.60;91.80;;;;;;5001838;28;93128;-47
2024/01/04 14:17:39;;;;;;;;;;;7.60;91.80;;;;;;5000865;28;92104;-47
2024/01/04 14:20:07;;;;;;;;;;;7.60;91.70;;;;;;4992330;28;91961;-47
2024/01/04 14:22:32;;;;;;;;;;;7.70;91.60;;;;;;4995791;28;93834;-49
2024/01/04 14:24:59;;;;;;;;;;;7.70;91.70;;;;;;4994980;28;92958;-48